createdAt,value
2022-07-25T00:00:48.993Z,27.9
2022-07-25T00:03:04.114Z,27.7
2022-07-25T00:05:18.965Z,27.9
2022-07-25T00:07:33.981Z,27.8
2022-07-25T00:09:48.941Z,27.9
2022-07-25T00:12:03.696Z,27.9
2022-07-25T00:16:33.730Z,27.9
2022-07-25T00:18:48.812Z,27.9
2022-07-25T00:21:03.648Z,27.7
2022-07-25T00:25:34.104Z,27.9
2022-07-25T00:34:33.352Z,27.6
2022-07-25T00:36:48.079Z,27.9
2022-07-25T00:43:33.303Z,27.9
2022-07-25T00:45:48.037Z,27.9
2022-07-25T00:48:03.091Z,27.9
2022-07-25T00:50:18.049Z,27.9
2022-07-25T00:52:33.217Z,27.9
2022-07-25T00:54:48.232Z,27.8
2022-07-25T00:57:02.821Z,27.6
2022-07-25T01:01:32.852Z,28
2022-07-25T01:03:47.939Z,28.1
2022-07-25T01:08:17.839Z,27.9
2022-07-25T01:10:32.542Z,28.1
2022-07-25T01:12:47.752Z,27.9
2022-07-25T01:17:17.677Z,28
2022-07-25T01:19:32.498Z,28.1
2022-07-25T01:21:47.319Z,28
2022-07-25T01:24:02.655Z,27.9
2022-07-25T01:26:17.257Z,27.8
2022-07-25T01:28:32.425Z,27.9
2022-07-25T01:30:47.375Z,27.9
2022-07-25T01:35:17.320Z,27.6
2022-07-25T01:37:32.224Z,27.8
2022-07-25T01:42:01.850Z,27.8
2022-07-25T01:44:16.972Z,27.6
2022-07-25T01:46:31.878Z,28.2
2022-07-25T01:48:47.002Z,27.7
2022-07-25T01:51:01.762Z,27.7
2022-07-25T01:53:16.899Z,27.6
2022-07-25T01:55:31.714Z,27.6
2022-07-25T01:57:49.642Z,27.6
2022-07-25T03:54:51.517Z,27.4
2022-07-25T03:57:06.346Z,27.5
2022-07-25T03:59:21.182Z,28.1
2022-07-25T04:01:36.117Z,28.1
2022-07-25T04:03:50.876Z,27.7
2022-07-25T04:06:05.808Z,27.8
2022-07-25T04:08:20.939Z,27.6
2022-07-25T04:10:35.428Z,27.8
2022-07-25T04:12:50.233Z,27.5
2022-07-25T04:15:05.071Z,27.7
2022-07-25T04:17:19.911Z,27.6
2022-07-25T04:19:34.779Z,27.6
2022-07-25T04:21:49.593Z,27.7
2022-07-25T04:24:04.926Z,27.4
2022-07-25T04:26:19.382Z,27.4
2022-07-25T04:28:34.334Z,27.6
2022-07-25T04:30:48.989Z,27.6
2022-07-25T04:33:03.898Z,27.6
2022-07-25T04:35:18.759Z,27.8
2022-07-25T04:37:33.574Z,27.6
2022-07-25T04:39:48.476Z,27.5
2022-07-25T04:42:03.337Z,27.6
2022-07-25T04:44:18.201Z,27.4
2022-07-25T04:46:33.039Z,27.8
2022-07-25T04:48:48.159Z,27.5
2022-07-25T04:51:02.650Z,27.6
2022-07-25T04:53:17.436Z,27.6
2022-07-25T04:55:32.386Z,27.6
2022-07-25T04:57:47.141Z,27.2
2022-07-25T05:00:02.240Z,27.6
2022-07-25T05:02:16.969Z,27.3
2022-07-25T05:04:31.685Z,27.4
2022-07-25T05:06:46.743Z,27.4
2022-07-25T05:09:01.559Z,27.4
2022-07-25T05:11:16.298Z,27.4
2022-07-25T05:13:31.207Z,27.4
2022-07-25T05:15:46.080Z,27.4
2022-07-25T05:18:00.927Z,27.3
2022-07-25T05:20:15.772Z,27.6
2022-07-25T05:22:30.680Z,27.8
2022-07-25T05:24:45.483Z,27.3
2022-07-25T05:27:00.254Z,27.7
2022-07-25T05:31:29.986Z,27.6
2022-07-25T05:33:44.910Z,27.7
2022-07-25T05:36:17.002Z,27.6
2022-07-25T05:40:46.735Z,27.9
2022-07-25T05:43:03.632Z,27.8
2022-07-25T05:45:16.375Z,27.9
2022-07-25T05:47:31.326Z,27.9
2022-07-25T05:49:46.082Z,27.9
2022-07-25T05:52:01.003Z,27.6
2022-07-25T05:54:15.906Z,28.3
2022-07-25T05:56:31.117Z,28.1
2022-07-25T05:58:45.651Z,28.1
2022-07-25T06:01:00.463Z,28.3
2022-07-25T06:03:15.300Z,28.1
2022-07-25T06:05:30.180Z,28.3
2022-07-25T06:07:45.035Z,28.3
2022-07-25T06:09:59.784Z,28.4
2022-07-25T06:12:15.111Z,28.4
2022-07-25T06:14:29.836Z,28.4
2022-07-25T06:16:44.925Z,28.4
2022-07-25T06:18:59.617Z,28.4
2022-07-25T06:21:14.420Z,28.4
2022-07-25T06:23:29.250Z,28.3
2022-07-25T06:25:44.196Z,28.1
2022-07-25T06:27:59.119Z,28.4
2022-07-25T06:30:19.515Z,28.3
2022-07-25T06:32:28.773Z,28.3
2022-07-25T06:34:43.696Z,28.3
2022-07-25T06:36:58.511Z,28.4
2022-07-25T06:39:13.371Z,28.6
2022-07-25T06:41:28.244Z,28.6
2022-07-25T06:43:42.974Z,28.6
2022-07-25T06:45:57.892Z,28.7
2022-07-25T06:48:12.655Z,28.8
2022-07-25T06:50:27.520Z,28.8
2022-07-25T06:52:42.435Z,28.8
2022-07-25T06:54:56.694Z,28.8
2022-07-25T06:57:12.094Z,28.8
2022-07-25T06:59:27.132Z,28.9
2022-07-25T07:01:42.015Z,29.1
2022-07-25T07:03:57.315Z,29.3
2022-07-25T07:06:11.911Z,29.3
2022-07-25T07:08:26.996Z,29
2022-07-25T07:10:41.268Z,29.2
2022-07-25T07:12:56.865Z,29.4
2022-07-25T07:15:11.782Z,29.3
2022-07-25T07:17:26.633Z,29.2
2022-07-25T07:19:41.733Z,29.1
2022-07-25T07:21:56.728Z,29.3
2022-07-25T07:24:23.599Z,29.3
2022-07-25T07:26:26.611Z,29.6
2022-07-25T07:28:41.611Z,29.6
2022-07-25T07:31:20.050Z,29.7
2022-07-25T07:33:34.400Z,29.6
2022-07-25T07:35:50.813Z,29.7
2022-07-25T07:38:04.321Z,29.8
2022-07-25T07:40:19.105Z,29.6
2022-07-25T07:42:33.456Z,29.8
2022-07-25T07:44:49.025Z,29.7
2022-07-25T07:47:03.591Z,29.8
2022-07-25T07:49:18.593Z,30.1
2022-07-25T07:51:33.429Z,30
2022-07-25T07:53:48.116Z,30.1
2022-07-25T07:56:03.040Z,30.3
2022-07-25T07:58:17.899Z,30.3
2022-07-25T08:00:32.911Z,30.3
2022-07-25T08:02:47.626Z,30.1
2022-07-25T08:05:02.397Z,30.3
2022-07-25T08:07:17.301Z,30.4
2022-07-25T08:09:32.051Z,30.3
2022-07-25T08:11:46.858Z,30.3
2022-07-25T08:14:01.777Z,30.3
2022-07-25T08:16:16.729Z,30.1
2022-07-25T08:18:31.582Z,30.1
2022-07-25T08:20:54.856Z,30.2
2022-07-25T08:23:09.576Z,30.1
2022-07-25T08:25:23.888Z,29.8
2022-07-25T08:27:38.716Z,29.9
2022-07-25T08:30:05.011Z,30.1
2022-07-25T08:32:20.568Z,30.6
2022-07-25T08:34:34.796Z,30.9
2022-07-25T08:36:49.619Z,30.7
2022-07-25T08:39:04.532Z,31.1
2022-07-25T08:41:19.397Z,30.8
2022-07-25T08:43:34.684Z,31
2022-07-25T08:45:49.060Z,31.2
2022-07-25T08:48:03.879Z,31.3
2022-07-25T08:50:18.750Z,31
2022-07-25T08:52:33.530Z,30.8
2022-07-25T08:55:04.753Z,30.6
2022-07-25T08:57:19.571Z,30.8
2022-07-25T08:59:34.462Z,30.9
2022-07-25T09:01:49.353Z,31.2
2022-07-25T09:04:04.704Z,31.2
2022-07-25T09:06:18.922Z,31
2022-07-25T09:08:33.903Z,30.9
2022-07-25T09:10:48.690Z,30.9
2022-07-25T09:13:02.987Z,30.8
2022-07-25T09:15:18.485Z,31.1
2022-07-25T09:17:33.231Z,31.2
2022-07-25T09:19:48.146Z,31.2
2022-07-25T09:22:02.982Z,31.1
2022-07-25T09:24:17.839Z,31.2
2022-07-25T09:26:32.658Z,31.1
2022-07-25T09:28:47.497Z,31.3
2022-07-25T09:31:02.448Z,31.4
2022-07-25T09:33:17.392Z,31.3
2022-07-25T09:35:32.071Z,31.3
2022-07-25T09:37:47.005Z,31.3
2022-07-25T09:40:01.810Z,31.2
2022-07-25T09:42:17.158Z,30.9
2022-07-25T09:44:31.569Z,31.1
2022-07-25T09:46:46.476Z,30.8
2022-07-25T09:49:01.310Z,31.1
2022-07-25T09:51:15.960Z,31.4
2022-07-25T09:53:30.827Z,31.3
2022-07-25T09:55:45.715Z,31.6
2022-07-25T09:58:00.601Z,31.9
2022-07-25T10:00:19.314Z,31.9
2022-07-25T10:02:30.317Z,31.7
2022-07-25T10:04:45.197Z,31.4
2022-07-25T10:07:00.029Z,31.7
2022-07-25T10:09:14.901Z,31.8
2022-07-25T10:11:29.645Z,32.3
2022-07-25T10:13:44.700Z,32.3
2022-07-25T10:15:58.823Z,32
2022-07-25T10:18:14.200Z,31.9
2022-07-25T10:20:29.160Z,31.7
2022-07-25T10:22:58.310Z,31.6
2022-07-25T10:25:12.389Z,31.4
2022-07-25T10:27:27.328Z,31.1
2022-07-25T10:29:42.381Z,30.9
2022-07-25T10:31:57.239Z,30.6
2022-07-25T10:34:12.573Z,30.5
2022-07-25T10:36:27.250Z,30.8
2022-07-25T10:38:42.179Z,31
2022-07-25T10:40:57.173Z,31.1
2022-07-25T10:43:12.160Z,30.9
2022-07-25T10:45:27.262Z,30.8
2022-07-25T10:47:41.877Z,30.6
2022-07-25T10:50:40.149Z,30.5
2022-07-25T10:52:43.094Z,30.5
2022-07-25T10:54:58.085Z,30.8
2022-07-25T10:57:12.912Z,30.8
2022-07-25T10:59:47.739Z,30.9
2022-07-25T11:02:02.678Z,31.2
2022-07-25T11:04:17.792Z,31.3
2022-07-25T11:06:32.648Z,31.3
2022-07-25T11:09:07.359Z,31.4
2022-07-25T11:11:21.786Z,31.4
2022-07-25T11:13:36.923Z,31.4
2022-07-25T11:15:51.919Z,31.1
2022-07-25T11:18:06.791Z,31.1
2022-07-25T11:20:21.806Z,30.9
2022-07-25T11:22:36.633Z,31.1
2022-07-25T11:24:51.859Z,31.4
2022-07-25T11:27:11.376Z,31.7
2022-07-25T11:29:21.785Z,31.7
2022-07-25T11:31:36.741Z,31.9
2022-07-25T11:33:51.610Z,32.3
2022-07-25T11:36:06.371Z,32.3
2022-07-25T11:38:21.529Z,32.3
2022-07-25T11:40:36.434Z,32.2
2022-07-25T11:42:51.145Z,32.2
2022-07-25T11:45:06.302Z,31.6
2022-07-25T11:47:21.139Z,31.6
2022-07-25T11:49:36.221Z,31.3
2022-07-25T11:51:51.147Z,31.3
2022-07-25T11:54:06.200Z,31.4
2022-07-25T11:56:43.203Z,31.8
2022-07-25T11:58:49.615Z,31.6
2022-07-25T12:01:04.441Z,31.7
2022-07-25T12:03:20.558Z,31.6
2022-07-25T12:05:34.252Z,31.7
2022-07-25T12:07:49.032Z,31.7
2022-07-25T12:10:03.829Z,31.7
2022-07-25T12:12:18.642Z,31.7
2022-07-25T12:14:35.417Z,31.6
2022-07-25T12:16:48.434Z,31.4
2022-07-25T12:19:03.360Z,31.1
2022-07-25T12:21:18.133Z,31.1
2022-07-25T12:23:32.909Z,31.8
2022-07-25T12:25:47.906Z,32
2022-07-25T12:28:02.674Z,32
2022-07-25T12:30:17.470Z,32.4
2022-07-25T12:32:32.571Z,32.6
2022-07-25T12:34:47.235Z,32.3
2022-07-25T12:37:01.953Z,32.1
2022-07-25T12:39:16.816Z,32.1
2022-07-25T12:41:31.716Z,31.9
2022-07-25T12:43:46.610Z,31.9
2022-07-25T12:46:02.027Z,31.7
2022-07-25T12:48:16.316Z,31.7
2022-07-25T12:50:31.202Z,31.6
2022-07-25T12:52:45.932Z,31.6
2022-07-25T12:55:00.745Z,31.4
2022-07-25T12:57:15.803Z,31.4
2022-07-25T12:59:30.401Z,31.2
2022-07-25T13:01:45.487Z,31.1
2022-07-25T13:04:00.106Z,31
2022-07-25T13:06:15.100Z,31.1
2022-07-25T13:08:30.136Z,31.2
2022-07-25T13:10:44.877Z,31.3
2022-07-25T13:12:59.744Z,31.3
2022-07-25T13:15:14.499Z,31.2
2022-07-25T13:17:29.283Z,31
2022-07-25T13:19:44.229Z,31.2
2022-07-25T13:21:59.685Z,31.1
2022-07-25T13:24:14.085Z,31
2022-07-25T13:26:28.716Z,31
2022-07-25T13:28:43.692Z,30.9
2022-07-25T13:30:58.431Z,30.9
2022-07-25T13:33:13.306Z,31
2022-07-25T13:35:33.863Z,31.1
2022-07-25T13:37:42.940Z,31
2022-07-25T13:39:57.912Z,30.9
2022-07-25T13:42:12.712Z,30.9
2022-07-25T13:44:27.614Z,31.2
2022-07-25T13:46:45.261Z,31.1
2022-07-25T13:49:15.981Z,31.1
2022-07-25T13:51:30.845Z,30.8
2022-07-25T13:53:45.815Z,30.8
2022-07-25T13:56:01.495Z,30.8
2022-07-25T13:58:15.528Z,30.8
2022-07-25T14:00:31.109Z,30.7
2022-07-25T14:02:45.636Z,30.8
2022-07-25T14:05:04.125Z,30.8
2022-07-25T14:07:15.356Z,30.8
2022-07-25T14:09:30.792Z,30.9
2022-07-25T14:11:45.398Z,30.9
2022-07-25T14:14:00.336Z,30.6
2022-07-25T14:16:15.249Z,30.6
2022-07-25T14:18:30.383Z,30.6
2022-07-25T14:20:45.375Z,30.5
2022-07-25T14:23:00.101Z,30.4
2022-07-25T14:25:15.211Z,30.6
2022-07-25T14:27:29.934Z,30.6
2022-07-25T14:29:44.998Z,30.6
2022-07-25T14:31:59.957Z,30.5
2022-07-25T14:34:14.997Z,30.4
2022-07-25T14:36:29.978Z,30.6
2022-07-25T14:38:44.927Z,30.6
2022-07-25T14:40:59.867Z,30.4
2022-07-25T14:43:14.630Z,30.5
2022-07-25T14:45:30.351Z,30.6
2022-07-25T14:47:44.612Z,30.4
2022-07-25T14:49:59.759Z,30.4
2022-07-25T14:52:14.576Z,30.2
2022-07-25T14:54:29.722Z,30.1
2022-07-25T14:56:44.624Z,30.3
2022-07-25T14:58:59.718Z,30.4
2022-07-25T15:01:14.472Z,30.4
2022-07-25T15:03:29.551Z,30.6
2022-07-25T15:05:44.346Z,30.6
2022-07-25T15:07:59.261Z,30.5
2022-07-25T15:10:15.889Z,30.6
2022-07-25T15:12:34.626Z,30.8
2022-07-25T15:15:17.308Z,30.7
2022-07-25T15:17:32.278Z,30.7
2022-07-25T15:20:02.289Z,30.8
2022-07-25T15:22:17.146Z,30.7
2022-07-25T15:24:44.400Z,30.6
2022-07-25T15:27:48.060Z,30.6
2022-07-25T15:30:02.842Z,30.6
2022-07-25T15:32:17.660Z,30.7
2022-07-25T15:34:32.357Z,30.6
2022-07-25T15:36:47.279Z,30.5
2022-07-25T15:39:02.053Z,30.3
2022-07-25T15:41:17.241Z,30.5
2022-07-25T15:43:31.869Z,30.3
2022-07-25T15:46:05.006Z,30.5
2022-07-25T15:48:19.685Z,30.3
2022-07-25T15:50:34.484Z,30.3
2022-07-25T15:52:49.431Z,30
2022-07-25T15:55:04.201Z,30
2022-07-25T15:57:19.019Z,30.1
2022-07-25T15:59:33.901Z,30.3
2022-07-25T16:01:49.025Z,30.4
2022-07-25T16:04:03.846Z,30.3
2022-07-25T16:06:18.989Z,30.4
2022-07-25T16:08:33.358Z,30.5
2022-07-25T16:10:48.261Z,30.4
2022-07-25T16:13:03.013Z,29.9
2022-07-25T16:15:17.879Z,30
2022-07-25T16:17:32.759Z,30
2022-07-25T16:19:47.631Z,30
2022-07-25T16:22:02.571Z,29.8
2022-07-25T16:24:17.197Z,30.1
2022-07-25T16:26:32.081Z,30
2022-07-25T16:28:46.972Z,29.9
2022-07-25T16:31:01.900Z,29.9
2022-07-25T16:33:16.811Z,29.9
2022-07-25T16:35:30.961Z,29.9
2022-07-25T16:37:46.591Z,29.8
2022-07-25T16:40:01.347Z,29.8
2022-07-25T16:42:16.168Z,29.8
2022-07-25T16:44:30.384Z,29.9
2022-07-25T16:46:45.799Z,29.7
2022-07-25T16:49:00.697Z,29.7
2022-07-25T16:51:15.479Z,29.9
2022-07-25T16:53:30.424Z,29.6
2022-07-25T16:55:45.418Z,30.6
2022-07-25T16:58:00.146Z,29.5
2022-07-25T17:00:15.190Z,29.6
2022-07-25T17:02:30.191Z,29.6
2022-07-25T17:04:45.196Z,29.4
2022-07-25T17:07:00.051Z,29.5
2022-07-25T17:09:16.795Z,29.4
2022-07-25T17:11:31.607Z,29.4
2022-07-25T17:13:46.358Z,29.3
2022-07-25T17:16:01.449Z,29.4
2022-07-25T17:18:16.014Z,29.5
2022-07-25T17:20:31.524Z,29.3
2022-07-25T17:22:45.749Z,29.4
2022-07-25T17:25:00.573Z,29.6
2022-07-25T17:27:15.445Z,29.3
2022-07-25T17:29:30.301Z,29.4
2022-07-25T17:31:45.139Z,29.4
2022-07-25T17:34:00.165Z,29.6
2022-07-25T17:36:14.825Z,29.4
2022-07-25T17:38:34.623Z,29.6
2022-07-25T17:40:43.973Z,29.6
2022-07-25T17:42:59.463Z,29.5
2022-07-25T17:45:14.265Z,29.1
2022-07-25T17:47:28.569Z,29.1
2022-07-25T17:49:43.622Z,28.9
2022-07-25T17:51:59.044Z,29
2022-07-25T17:54:14.189Z,28.9
2022-07-25T17:56:29.100Z,29.1
2022-07-25T17:58:44.087Z,28.8
2022-07-25T18:01:01.276Z,28.7
2022-07-25T18:03:13.871Z,28.9
2022-07-25T18:05:28.766Z,28.8
2022-07-25T18:07:43.658Z,28.9
2022-07-25T18:09:58.758Z,28.8
2022-07-25T18:12:13.582Z,28.6
2022-07-25T18:14:28.733Z,28.8
2022-07-25T18:16:43.568Z,28.8
2022-07-25T18:18:58.698Z,28.6
2022-07-25T18:21:13.552Z,28.7
2022-07-25T18:23:28.555Z,28.8
2022-07-25T18:25:43.417Z,28.4
2022-07-25T18:27:58.345Z,28.8
2022-07-25T18:30:13.535Z,28.4
2022-07-25T18:32:28.108Z,28.4
2022-07-25T18:34:43.147Z,28.4
2022-07-25T18:36:58.056Z,28.7
2022-07-25T18:39:13.147Z,28.4
2022-07-25T18:41:44.189Z,28.4
2022-07-25T18:43:59.072Z,28.4
2022-07-25T18:46:13.977Z,28.3
2022-07-25T18:48:29.130Z,28.1
2022-07-25T18:50:43.540Z,28.1
2022-07-25T18:52:58.428Z,28.1
2022-07-25T18:55:13.363Z,27.9
2022-07-25T18:57:28.294Z,28.1
2022-07-25T18:59:43.360Z,28
2022-07-25T19:01:58.249Z,27.9
2022-07-25T19:04:13.415Z,27.8
2022-07-25T19:06:28.157Z,27.8
2022-07-25T19:08:43.253Z,27.8
2022-07-25T19:10:58.364Z,27.8
2022-07-25T19:13:26.925Z,27.7
2022-07-25T19:15:42.047Z,27.5
2022-07-25T19:17:56.812Z,27.6
2022-07-25T19:20:11.813Z,27.6
2022-07-25T19:22:26.638Z,27.4
2022-07-25T19:24:41.751Z,27.4
2022-07-25T19:26:56.617Z,27.5
2022-07-25T19:29:12.162Z,27.4
2022-07-25T19:31:26.770Z,27.5
2022-07-25T19:33:41.637Z,27.4
2022-07-25T19:35:56.470Z,27.3
2022-07-25T19:38:11.289Z,27.3
2022-07-25T19:40:26.447Z,27.2
2022-07-25T19:42:41.335Z,27.5
2022-07-25T19:44:56.312Z,27.2
2022-07-25T19:47:11.928Z,27.1
2022-07-25T19:49:26.217Z,27.1
2022-07-25T19:51:41.361Z,27.1
2022-07-25T19:53:56.624Z,27.3
2022-07-25T19:56:10.974Z,27.1
2022-07-25T19:58:25.831Z,27.1
2022-07-25T20:00:41.422Z,27.5
2022-07-25T20:02:56.326Z,27.4
2022-07-25T20:05:11.419Z,27.6
2022-07-25T20:07:26.449Z,27.3
2022-07-25T20:09:41.370Z,27.5
2022-07-25T20:11:56.421Z,27.5
2022-07-25T20:14:11.514Z,27.6
2022-07-25T20:16:26.143Z,27.6
2022-07-25T20:18:41.277Z,28
2022-07-25T20:20:56.006Z,28.1
2022-07-25T20:23:10.846Z,28.1
2022-07-25T20:25:26.011Z,28
2022-07-25T20:27:40.830Z,27.6
2022-07-25T20:29:56.037Z,27.7
2022-07-25T20:32:10.710Z,28.3
2022-07-25T20:34:25.852Z,28.3
2022-07-25T20:36:40.608Z,28.1
2022-07-25T20:38:55.806Z,28.2
2022-07-25T20:41:10.654Z,28.2
2022-07-25T20:43:25.394Z,28.3
2022-07-25T20:45:40.534Z,28.3
2022-07-25T20:47:55.395Z,28.3
2022-07-25T20:50:11.189Z,28.2
2022-07-25T20:52:25.397Z,28.1
2022-07-25T20:54:40.466Z,28.5
2022-07-25T20:56:55.241Z,28.5
2022-07-25T20:59:10.577Z,28.8
2022-07-25T21:01:25.378Z,28.3
2022-07-25T21:03:40.384Z,28.2
2022-07-25T21:05:55.206Z,28.2
2022-07-25T21:08:15.156Z,28.1
2022-07-25T21:10:29.987Z,28.2
2022-07-25T21:12:44.847Z,27.9
2022-07-25T21:14:59.629Z,27.9
2022-07-25T21:17:14.530Z,28.4
2022-07-25T21:19:29.306Z,28.1
2022-07-25T21:21:44.245Z,27.9
2022-07-25T21:23:58.985Z,28.3
2022-07-25T21:26:13.905Z,28.1
2022-07-25T21:28:28.806Z,28.1
2022-07-25T21:30:43.626Z,28.1
2022-07-25T21:32:58.552Z,28
2022-07-25T21:35:13.356Z,28.2
2022-07-25T21:37:28.160Z,28.1
2022-07-25T21:39:43.332Z,28.2
2022-07-25T21:41:58.086Z,28.1
2022-07-25T21:44:13.029Z,28
2022-07-25T21:46:28.020Z,28.2
2022-07-25T21:48:42.890Z,28.1
2022-07-25T21:50:58.917Z,28.1
2022-07-25T21:53:13.680Z,28.1
2022-07-25T21:55:28.668Z,28.1
2022-07-25T21:57:43.535Z,28.2
2022-07-25T21:59:58.473Z,28.3
2022-07-25T22:02:13.184Z,28.2
2022-07-25T22:04:28.270Z,28.3
2022-07-25T22:06:42.919Z,27.9
2022-07-25T22:08:57.663Z,27.9
2022-07-25T22:11:16.137Z,28.1
2022-07-25T22:13:43.097Z,27.9
2022-07-25T22:15:55.681Z,28
2022-07-25T22:18:10.400Z,28
2022-07-25T22:20:25.365Z,28.1
2022-07-25T22:22:40.093Z,27.9
2022-07-25T22:27:09.899Z,28.1
2022-07-25T22:29:24.753Z,27.9
2022-07-25T22:31:39.653Z,28
2022-07-25T22:36:09.321Z,27.9
2022-07-25T22:38:24.114Z,27.9
2022-07-25T22:40:39.412Z,27.9
2022-07-25T22:42:54.029Z,27.9
2022-07-25T22:45:31.508Z,28
2022-07-25T22:47:46.334Z,27.7
2022-07-25T22:50:01.449Z,28.2
2022-07-25T22:52:16.298Z,26.4
2022-07-25T22:54:31.374Z,26.1
2022-07-25T22:56:46.055Z,26.6
2022-07-25T22:59:01.213Z,26.4
2022-07-25T23:01:16.034Z,26.6
2022-07-25T23:03:31.676Z,26.6
2022-07-25T23:05:46.340Z,26.6
2022-07-25T23:08:00.827Z,26.7
2022-07-25T23:10:15.953Z,26.7
2022-07-25T23:12:30.790Z,26.7
2022-07-25T23:14:46.477Z,26.6
2022-07-25T23:17:08.661Z,26.8
2022-07-25T23:19:23.488Z,26.9
2022-07-25T23:21:38.988Z,27.1
2022-07-25T23:23:53.200Z,26.9
2022-07-25T23:26:08.020Z,27.2
2022-07-25T23:28:22.862Z,27.3
2022-07-25T23:30:40.390Z,27.4
2022-07-25T23:32:52.542Z,27.4
2022-07-25T23:35:07.541Z,27.4
2022-07-25T23:37:22.464Z,27.4
2022-07-25T23:39:37.168Z,27.6
2022-07-25T23:41:52.060Z,27.5
2022-07-25T23:44:21.081Z,27.5
2022-07-25T23:46:36.094Z,27.6
2022-07-25T23:48:53.759Z,27.3
2022-07-25T23:51:08.591Z,27.6
2022-07-25T23:53:23.379Z,27.4
2022-07-25T23:55:38.201Z,27.6
2022-07-25T23:57:53.343Z,27.6
